メインページ
METAR-TAF:

METAR-TAF

空港 :

ボストン, マサチューセッツ州, アメリカ合衆国

ジェネラル・エドワード・ローレンス・ローガン国際空港

緯度: 42-21-38N, 経度: 071-00-38W, 海抜: 6m

現時点の気象観測

当レポートは12分前の11:54(UTC)に作成
の風 7kt
気温 -1°C
湿度 50%
気圧 1033 hPa
視程: 16.1km
高度11000ftの雲は散在している
高度25000ftの千切れ雲あり

METAR: KBOS 241154Z 17007KT 10SM SCT110 BKN250 M01/M10 A3049 RMK AO2 SLP325 T10061100 10000 21028 58002

時間: 08:06 (12:06 UTC)

予報

当レポートは46分前の11:20(UTC)に作成
予報は24日の 12時(UTC)から 25日の 18時(UTC)まで有効
の風 12kt
視程: 10km
高度10000ftの千切れ雲あり
24日の 1800時(UTC)から
南/南西の風 14kt、最大26ktの突風を伴う
視程: 10km
高度3500ftの曇り
小雨
24日の 2000時(UTC)から
南/南西の風 14kt、最大26ktの突風を伴う
視程: 10km
高度3500ftの曇り
24日の 2200時(UTC)から
南西の風 12kt
視程: 10km
高度3500ftの曇り
25日の 1100時(UTC)から
西/北西の風 5kt
視程: 10km
高度5000ftの曇り
25日の 1400時(UTC)から
の風 5kt
視程: 10km
高度4000ftの曇り
近辺でにわか雨

TAF: KBOS 241120Z 2412/2518 19012KT P6SM BKN100 FM241800 21014G26KT P6SM -RA OVC035 FM242000 21014G26KT P6SM OVC035 FM242200 23012KT P6SM OVC035 FM251100 29005KT P6SM OVC050 FM251400 35005KT P6SM VCSH OVC040

4,000以上の空港の気象観測と天気予報(METAR報とTAF報)

利用可能な観測所は地図上に黄色い丸と赤い丸で示す。

丸の上にカーソルを重ねると観測所名を参照できる。

次にクリックすると気象観測と天気予報を参照できる。

マップの切り替え:黒色「×」印の緑ボタンをクリックして拡大、「-」印の緑ボタンをクリックして縮小、緑色の三角印をクリックして隣りの地図に切り替え


METAR-TAF: